Time;durP1;ratioP1;P1;durP2;ratioP2;P2;SDS_P1;SDS_P2;PMS_P1;PMS_P2;Temp;Humidity;BMP_temperature;BMP_pressure;BME280_temperature;BME280_humidity;BME280_pressure;Samples;Min_cycle;Max_cycle;Signal;HPM_P1;HPM_P2
2021/09/16 00:00:59;;;;;;;4.72;0.93;;;14.20;99.90;;;;;;5012932;28;20057;-94
2021/09/16 00:03:25;;;;;;;6.00;1.15;;;14.20;99.90;;;;;;5013768;28;20076;-95
2021/09/16 00:05:51;;;;;;;4.30;0.98;;;14.20;99.90;;;;;;5005454;28;20042;-94
2021/09/16 00:08:17;;;;;;;9.38;1.45;;;14.20;99.90;;;;;;5030773;28;20052;-93
2021/09/16 00:10:43;;;;;;;6.63;1.33;;;14.20;99.90;;;;;;5000502;28;20437;-95
2021/09/16 00:13:09;;;;;;;10.70;1.10;;;14.30;99.90;;;;;;5047909;28;20132;-95
2021/09/16 00:15:35;;;;;;;9.30;1.25;;;14.30;99.90;;;;;;5047947;28;20045;-92
2021/09/16 00:18:01;;;;;;;6.60;1.30;;;14.30;99.90;;;;;;5064666;28;20176;-95
2021/09/16 00:20:27;;;;;;;10.70;1.63;;;14.30;99.90;;;;;;5031865;28;20132;-96
2021/09/16 00:22:53;;;;;;;5.03;0.93;;;14.30;99.90;;;;;;5014191;28;20045;-96
2021/09/16 00:25:19;;;;;;;13.60;1.40;;;14.30;99.90;;;;;;4999457;28;20037;-96
2021/09/16 00:27:44;;;;;;;9.65;1.48;;;14.20;99.90;;;;;;5047133;28;20156;-94
2021/09/16 00:30:11;;;;;;;6.05;1.20;;;14.20;99.90;;;;;;5028467;28;20053;-95
2021/09/16 00:32:37;;;;;;;10.48;2.00;;;14.20;99.90;;;;;;5041203;28;20045;-91
2021/09/16 00:35:05;;;;;;;5.85;0.98;;;14.10;99.90;;;;;;5010458;28;20052;-96
2021/09/16 00:37:30;;;;;;;6.07;1.10;;;14.10;99.90;;;;;;5020242;28;20569;-94
2021/09/16 00:39:57;;;;;;;2.85;0.73;;;14.10;99.90;;;;;;5045604;28;20121;-95
2021/09/16 00:42:22;;;;;;;9.32;1.10;;;14.10;99.90;;;;;;5014269;28;20049;-94
2021/09/16 00:44:48;;;;;;;7.32;0.98;;;14.00;99.90;;;;;;5030504;28;20107;-94
2021/09/16 00:47:16;;;;;;;11.57;1.10;;;14.10;99.90;;;;;;5008452;28;20033;-95
2021/09/16 00:49:45;;;;;;;8.25;1.40;;;14.00;99.90;;;;;;5022168;28;20049;-94
2021/09/16 00:52:12;;;;;;;7.93;1.10;;;14.00;99.90;;;;;;5010456;28;20046;-94
2021/09/16 00:54:43;;;;;;;8.20;0.90;;;14.00;99.90;;;;;;5021199;28;20133;-92
2021/09/16 00:57:11;;;;;;;5.50;0.95;;;13.90;99.90;;;;;;5030783;28;20081;-93
2021/09/16 00:59:38;;;;;;;9.00;1.20;;;14.00;99.90;;;;;;5030192;28;20053;-91
2021/09/16 01:02:06;;;;;;;5.63;1.20;;;14.00;99.90;;;;;;5030504;28;20063;-95
2021/09/16 01:04:32;;;;;;;8.43;1.00;;;14.00;99.90;;;;;;5030741;28;20052;-96
2021/09/16 01:06:58;;;;;;;6.88;1.27;;;14.00;99.90;;;;;;5029180;28;20053;-95
2021/09/16 01:09:25;;;;;;;4.88;1.13;;;14.00;99.90;;;;;;5015383;28;20530;-96
2021/09/16 01:11:52;;;;;;;10.20;1.20;;;14.00;99.90;;;;;;5031558;28;20117;-95
2021/09/16 01:14:22;;;;;;;9.45;1.20;;;13.90;99.90;;;;;;5030359;28;20100;-95
2021/09/16 01:16:49;;;;;;;8.52;1.52;;;13.90;99.90;;;;;;5019966;28;20274;-94
2021/09/16 01:19:14;;;;;;;6.03;1.17;;;13.90;99.90;;;;;;5029915;28;20041;-95
2021/09/16 01:21:40;;;;;;;5.00;0.82;;;13.90;99.90;;;;;;5010474;28;20050;-92
2021/09/16 01:24:06;;;;;;;7.55;1.70;;;13.90;99.90;;;;;;5040998;28;20095;-94
2021/09/16 01:26:31;;;;;;;11.80;1.58;;;13.90;99.90;;;;;;5013397;28;20064;-94
2021/09/16 01:28:57;;;;;;;8.85;1.70;;;14.00;99.90;;;;;;5012619;28;20095;-94
2021/09/16 01:31:37;;;;;;;12.32;1.15;;;14.00;99.90;;;;;;5029844;28;20046;-92
2021/09/16 01:34:05;;;;;;;8.30;1.17;;;14.00;99.90;;;;;;5012215;28;20041;-92
2021/09/16 01:36:31;;;;;;;7.93;1.23;;;14.10;99.90;;;;;;5062234;28;20045;-93
2021/09/16 01:38:57;;;;;;;9.82;0.98;;;14.10;99.90;;;;;;5023216;28;20206;-91
2021/09/16 01:41:22;;;;;;;9.48;1.48;;;14.20;99.90;;;;;;5041169;28;20037;-92
2021/09/16 01:43:48;;;;;;;4.55;1.00;;;14.20;99.90;;;;;;5034066;28;20049;-91
2021/09/16 01:46:14;;;;;;;9.13;1.02;;;14.20;99.90;;;;;;5045388;28;20037;-92
2021/09/16 01:48:39;;;;;;;10.50;1.55;;;14.20;99.90;;;;;;5045165;28;20111;-90
2021/09/16 01:51:05;;;;;;;8.82;1.27;;;14.30;99.90;;;;;;5011811;28;20045;-93
2021/09/16 01:53:31;;;;;;;6.28;1.00;;;14.20;99.90;;;;;;5027969;28;20076;-94
2021/09/16 01:55:56;;;;;;;12.90;1.42;;;14.20;99.90;;;;;;5029034;28;20056;-93
2021/09/16 01:58:22;;;;;;;9.05;1.27;;;14.20;99.90;;;;;;5008939;28;20096;-94
2021/09/16 02:00:48;;;;;;;6.95;1.00;;;14.20;99.90;;;;;;5011830;28;20041;-94
2021/09/16 02:03:15;;;;;;;6.57;1.27;;;14.20;99.90;;;;;;5062267;28;20046;-95
2021/09/16 02:05:41;;;;;;;10.38;1.55;;;14.20;99.90;;;;;;4996121;28;20124;-92
2021/09/16 02:08:07;;;;;;;11.07;1.25;;;14.20;99.90;;;;;;5009140;28;20554;-94
2021/09/16 02:10:33;;;;;;;8.25;1.52;;;14.20;99.90;;;;;;5025824;28;20052;-93
2021/09/16 02:12:58;;;;;;;7.10;1.00;;;14.20;99.90;;;;;;5012098;28;20136;-94
2021/09/16 02:15:24;;;;;;;12.32;1.35;;;14.20;99.90;;;;;;5048567;28;20228;-93
2021/09/16 02:17:50;;;;;;;8.88;2.22;;;14.30;99.90;;;;;;4993828;28;20049;-93
2021/09/16 02:20:15;;;;;;;8.32;1.30;;;14.30;99.90;;;;;;5016791;28;20081;-92
2021/09/16 02:22:42;;;;;;;17.30;2.38;;;14.30;99.90;;;;;;5011944;28;20057;-94
2021/09/16 02:25:08;;;;;;;12.38;1.90;;;14.20;99.90;;;;;;5030213;28;20049;-92
2021/09/16 02:27:34;;;;;;;7.85;1.50;;;14.20;99.90;;;;;;5032730;28;20091;-92
2021/09/16 02:30:00;;;;;;;2.88;1.42;;;14.20;99.90;;;;;;5031706;28;20037;-95
2021/09/16 02:32:25;;;;;;;9.50;1.60;;;14.20;99.90;;;;;;5062323;28;20045;-92
2021/09/16 02:34:51;;;;;;;12.75;1.90;;;14.20;99.90;;;;;;5019614;28;20048;-96
2021/09/16 02:37:17;;;;;;;14.77;2.00;;;14.20;99.90;;;;;;5037136;28;20103;-94
2021/09/16 02:39:43;;;;;;;9.10;1.65;;;14.20;99.90;;;;;;4998809;28;20049;-91
2021/09/16 02:42:09;;;;;;;10.00;2.03;;;14.30;99.90;;;;;;5016834;28;20452;-96
2021/09/16 02:44:34;;;;;;;20.92;2.78;;;14.30;99.90;;;;;;5046804;28;20485;-96
2021/09/16 02:47:00;;;;;;;6.55;1.98;;;14.30;99.90;;;;;;5056632;28;20042;-96
2021/09/16 02:49:26;;;;;;;8.48;2.42;;;14.30;99.90;;;;;;5041251;28;20533;-94
2021/09/16 02:51:51;;;;;;;10.15;2.00;;;14.30;99.90;;;;;;5053218;28;20057;-95
2021/09/16 02:54:18;;;;;;;14.02;1.98;;;14.30;99.90;;;;;;5015897;28;20061;-93
2021/09/16 02:56:44;;;;;;;13.70;2.25;;;14.30;99.90;;;;;;5031927;28;20132;-92
2021/09/16 02:59:10;;;;;;;22.58;3.13;;;14.30;99.90;;;;;;5014827;28;20556;-92
2021/09/16 03:01:35;;;;;;;12.38;2.10;;;14.30;99.90;;;;;;5015083;28;20485;-95
2021/09/16 03:04:01;;;;;;;11.27;3.10;;;14.30;99.90;;;;;;5014378;28;20152;-93
2021/09/16 03:06:27;;;;;;;14.40;2.50;;;14.30;99.90;;;;;;4995897;28;20422;-92
2021/09/16 03:08:52;;;;;;;10.75;2.00;;;14.40;99.90;;;;;;5012185;28;20041;-92
2021/09/16 03:11:18;;;;;;;10.55;2.90;;;14.40;99.90;;;;;;5046861;28;20057;-92
2021/09/16 03:13:44;;;;;;;8.73;2.30;;;14.40;99.90;;;;;;5064167;28;20034;-95
2021/09/16 03:16:09;;;;;;;7.68;1.92;;;14.40;99.90;;;;;;5015506;28;20049;-94
2021/09/16 03:18:35;;;;;;;13.60;2.55;;;14.40;99.90;;;;;;5008543;28;20133;-94
2021/09/16 03:21:01;;;;;;;8.23;2.15;;;14.40;99.90;;;;;;4998849;28;20053;-95
2021/09/16 03:23:26;;;;;;;13.27;2.67;;;14.40;99.90;;;;;;5028469;28;20077;-94
2021/09/16 03:25:52;;;;;;;9.60;2.33;;;14.40;99.90;;;;;;5042491;28;20095;-95
2021/09/16 03:28:18;;;;;;;11.75;2.90;;;14.40;99.90;;;;;;5032013;28;20057;-94
2021/09/16 03:30:43;;;;;;;8.88;2.10;;;14.50;99.90;;;;;;5015395;28;20084;-95
2021/09/16 03:33:09;;;;;;;9.63;2.10;;;14.50;99.90;;;;;;5031287;28;20344;-95
2021/09/16 03:35:35;;;;;;;11.15;2.78;;;14.50;99.90;;;;;;5032232;28;20042;-95
2021/09/16 03:38:00;;;;;;;7.13;2.45;;;14.50;99.90;;;;;;5064983;28;20109;-95
2021/09/16 03:40:26;;;;;;;16.52;3.13;;;14.50;99.90;;;;;;5048788;28;20049;-96
2021/09/16 03:42:52;;;;;;;6.07;2.38;;;14.50;99.90;;;;;;5015427;28;20734;-93
2021/09/16 03:45:18;;;;;;;12.57;4.20;;;14.50;99.90;;;;;;5033362;28;20057;-95
2021/09/16 03:47:44;;;;;;;8.63;2.75;;;14.50;99.90;;;;;;5033461;28;20056;-94
2021/09/16 03:50:11;;;;;;;9.40;2.45;;;14.50;99.90;;;;;;5030207;28;20037;-94
2021/09/16 03:52:37;;;;;;;12.80;2.72;;;14.50;99.90;;;;;;5031156;28;20050;-95
2021/09/16 03:55:03;;;;;;;9.88;2.88;;;14.50;99.90;;;;;;5013088;28;20072;-94
2021/09/16 03:57:29;;;;;;;15.13;3.08;;;14.50;99.90;;;;;;5014913;28;20139;-94
2021/09/16 03:59:55;;;;;;;8.25;3.97;;;14.60;99.90;;;;;;5030101;28;20101;-95
2021/09/16 04:02:20;;;;;;;17.10;3.75;;;14.60;99.90;;;;;;5048751;28;20041;-95
2021/09/16 04:04:46;;;;;;;10.57;3.35;;;14.70;99.90;;;;;;5030423;28;20045;-94
2021/09/16 04:07:12;;;;;;;13.55;3.20;;;14.70;99.90;;;;;;5030119;28;20568;-95
2021/09/16 04:09:37;;;;;;;18.15;3.45;;;14.70;99.90;;;;;;5042016;28;20049;-93
2021/09/16 04:12:03;;;;;;;8.75;2.97;;;14.70;99.90;;;;;;5014958;28;20107;-96
2021/09/16 04:14:29;;;;;;;11.90;3.30;;;14.70;99.90;;;;;;5060991;28;20065;-93
2021/09/16 04:16:55;;;;;;;12.65;3.80;;;14.70;99.90;;;;;;5014392;28;20045;-92
2021/09/16 04:19:21;;;;;;;9.60;3.20;;;14.70;99.90;;;;;;5017655;28;20041;-96
2021/09/16 04:21:47;;;;;;;21.23;4.10;;;14.70;99.90;;;;;;5066561;28;20179;-94
2021/09/16 04:24:13;;;;;;;9.45;3.35;;;14.70;99.90;;;;;;5031709;28;20053;-95
2021/09/16 04:26:44;;;;;;;17.42;3.78;;;14.70;99.90;;;;;;5030307;28;20445;-96
2021/09/16 04:29:11;;;;;;;11.20;3.80;;;14.70;99.90;;;;;;5010824;28;20054;-96
2021/09/16 04:31:37;;;;;;;14.38;4.45;;;14.70;99.90;;;;;;5047386;28;20430;-91
2021/09/16 04:34:03;;;;;;;14.35;4.78;;;14.70;99.90;;;;;;5029688;28;20128;-95
2021/09/16 04:36:28;;;;;;;11.02;3.97;;;14.80;99.90;;;;;;5030462;28;20132;-95
2021/09/16 04:38:54;;;;;;;12.93;4.20;;;14.80;99.90;;;;;;5030912;28;20044;-91
2021/09/16 04:41:20;;;;;;;16.45;5.03;;;15.00;99.90;;;;;;5012357;28;20045;-96
2021/09/16 04:43:46;;;;;;;17.52;5.07;;;15.00;99.90;;;;;;5030383;28;20064;-93
2021/09/16 04:46:11;;;;;;;21.52;11.23;;;15.00;99.90;;;;;;5047786;28;20045;-96
2021/09/16 04:48:37;;;;;;;29.70;16.75;;;15.00;99.90;;;;;;5030791;28;20087;-96
2021/09/16 04:51:03;;;;;;;16.33;4.78;;;15.10;99.90;;;;;;5018641;28;20049;-91
2021/09/16 04:53:28;;;;;;;17.75;7.85;;;15.10;99.90;;;;;;5041715;28;20049;-96
2021/09/16 04:55:54;;;;;;;14.65;5.25;;;15.10;99.90;;;;;;5036402;28;20037;-91
2021/09/16 04:58:20;;;;;;;11.60;3.65;;;15.10;99.90;;;;;;5017450;28;20049;-93
2021/09/16 05:00:45;;;;;;;15.32;4.35;;;15.10;99.90;;;;;;5046307;28;20125;-95
2021/09/16 05:03:11;;;;;;;16.58;4.95;;;15.10;99.90;;;;;;5012252;28;20111;-94
2021/09/16 05:05:37;;;;;;;17.65;4.53;;;15.10;99.90;;;;;;5062047;28;20049;-96
2021/09/16 05:08:03;;;;;;;19.20;4.63;;;15.10;99.90;;;;;;4992712;28;20152;-93
2021/09/16 05:10:29;;;;;;;20.15;4.80;;;15.10;99.90;;;;;;5024013;28;20049;-92
2021/09/16 05:12:55;;;;;;;17.40;4.65;;;15.10;99.90;;;;;;5062615;28;20048;-93
2021/09/16 05:15:20;;;;;;;16.65;4.65;;;15.10;99.90;;;;;;5061919;28;20050;-93
2021/09/16 05:17:46;;;;;;;17.95;4.32;;;15.10;99.90;;;;;;5062338;28;20042;-91
2021/09/16 05:20:13;;;;;;;16.95;4.72;;;15.10;99.90;;;;;;5011445;28;20052;-94
2021/09/16 05:22:39;;;;;;;16.63;4.57;;;15.10;99.90;;;;;;5028789;28;20057;-94
2021/09/16 05:25:05;;;;;;;22.20;5.60;;;15.10;99.90;;;;;;5028120;28;20044;-93
2021/09/16 05:27:31;;;;;;;13.93;4.18;;;15.10;99.90;;;;;;5028983;28;20053;-93
2021/09/16 05:29:57;;;;;;;13.43;4.80;;;15.20;99.90;;;;;;5012557;28;20064;-92
2021/09/16 05:32:27;;;;;;;19.27;4.68;;;15.20;99.90;;;;;;5027812;28;20042;-91
2021/09/16 05:34:54;;;;;;;;;;;15.20;99.90;;;;;;5028559;28;20216;-94
2021/09/16 05:37:19;;;;;;;14.98;3.85;;;15.20;99.90;;;;;;5029089;28;19951;-94
2021/09/16 05:39:45;;;;;;;12.70;4.15;;;15.20;99.90;;;;;;5026116;28;20065;-94
2021/09/16 05:44:39;;;;;;;16.15;4.13;;;15.20;99.90;;;;;;5069423;28;20067;-92
2021/09/16 05:47:05;;;;;;;14.77;4.43;;;15.20;99.90;;;;;;5206552;22;20112;-96
2021/09/16 05:49:31;;;;;;;24.60;4.70;;;15.20;99.90;;;;;;5292206;22;20711;-92
2021/09/16 05:51:57;;;;;;;16.27;4.68;;;15.10;99.90;;;;;;5393723;23;20060;-95
2021/09/16 05:54:26;;;;;;;21.67;5.13;;;15.20;99.90;;;;;;5539552;22;20375;-91
2021/09/16 05:56:52;;;;;;;23.42;4.43;;;15.20;99.90;;;;;;5008515;28;20053;-95
2021/09/16 05:59:18;;;;;;;15.32;4.22;;;15.20;99.90;;;;;;5023276;28;20088;-91
2021/09/16 06:01:43;;;;;;;12.90;4.07;;;15.20;99.90;;;;;;5066538;23;20048;-96
2021/09/16 06:04:09;;;;;;;14.32;3.63;;;15.30;99.90;;;;;;5034804;28;20063;-92
2021/09/16 06:06:35;;;;;;;16.80;4.25;;;15.30;99.90;;;;;;5045725;28;20037;-93
2021/09/16 06:09:01;;;;;;;12.85;3.30;;;15.30;99.90;;;;;;5031264;28;20567;-91
2021/09/16 06:11:27;;;;;;;11.52;3.55;;;15.40;99.90;;;;;;5037285;28;20043;-96
2021/09/16 06:13:56;;;;;;;12.10;2.80;;;15.40;99.90;;;;;;5052737;28;20036;-96
2021/09/16 06:16:22;;;;;;;8.88;3.10;;;15.40;99.90;;;;;;5030932;28;20056;-94
2021/09/16 06:18:49;;;;;;;11.95;3.78;;;15.50;99.90;;;;;;5075092;28;20041;-94
2021/09/16 06:21:15;;;;;;;15.70;4.22;;;15.50;99.90;;;;;;5055154;28;20480;-95
2021/09/16 06:23:42;;;;;;;14.52;3.13;;;15.50;99.90;;;;;;5039371;28;20053;-91
2021/09/16 06:26:08;;;;;;;15.55;4.10;;;15.60;99.90;;;;;;5040229;28;20488;-92
2021/09/16 06:28:34;;;;;;;12.82;3.65;;;15.60;99.90;;;;;;5062716;28;20097;-93
2021/09/16 06:30:59;;;;;;;14.77;3.50;;;15.60;99.90;;;;;;5043990;28;20131;-96
2021/09/16 06:33:25;;;;;;;18.48;3.47;;;15.60;99.90;;;;;;5040720;28;20043;-93
2021/09/16 06:35:51;;;;;;;12.60;3.35;;;15.70;99.90;;;;;;5059866;28;20057;-96
2021/09/16 06:38:17;;;;;;;10.30;3.42;;;15.70;99.90;;;;;;5063521;28;20121;-96
2021/09/16 06:40:43;;;;;;;16.63;3.75;;;15.70;99.90;;;;;;5067923;28;20048;-95
2021/09/16 06:43:09;;;;;;;17.02;3.85;;;15.70;99.90;;;;;;5083498;28;20049;-96
2021/09/16 06:45:35;;;;;;;11.57;3.00;;;15.80;99.90;;;;;;5049636;28;20055;-92
2021/09/16 06:48:01;;;;;;;16.95;3.70;;;15.80;99.90;;;;;;5049684;28;20075;-95
2021/09/16 06:50:26;;;;;;;13.40;3.70;;;15.80;99.90;;;;;;5025652;28;20041;-95
2021/09/16 06:52:52;;;;;;;14.52;3.33;;;15.90;99.90;;;;;;5034809;28;20036;-95
2021/09/16 06:55:18;;;;;;;18.10;4.43;;;15.90;99.90;;;;;;5037179;28;20060;-93
2021/09/16 06:57:44;;;;;;;17.55;4.55;;;16.00;99.90;;;;;;5054953;28;20060;-95
2021/09/16 07:00:11;;;;;;;17.63;4.22;;;16.00;99.90;;;;;;5036587;28;20076;-92
2021/09/16 07:02:37;;;;;;;12.10;3.08;;;16.10;99.90;;;;;;5054518;28;20059;-93
2021/09/16 07:05:04;;;;;;;19.65;3.40;;;16.10;99.90;;;;;;5024879;28;20079;-96
2021/09/16 07:07:30;;;;;;;18.13;4.50;;;16.20;99.90;;;;;;5029130;28;20041;-94
2021/09/16 07:09:56;;;;;;;12.82;3.10;;;16.30;99.90;;;;;;5073825;28;20038;-96
2021/09/16 07:12:22;;;;;;;15.68;3.28;;;16.30;99.90;;;;;;5048176;28;20128;-94
2021/09/16 07:14:48;;;;;;;14.07;3.10;;;16.40;99.90;;;;;;5063255;28;20063;-96
2021/09/16 07:17:17;;;;;;;16.90;2.97;;;16.40;99.90;;;;;;5028990;28;20041;-94
2021/09/16 07:19:43;;;;;;;13.65;2.88;;;16.50;99.90;;;;;;5040575;28;20032;-95
2021/09/16 07:24:38;;;;;;;15.05;2.80;;;16.60;99.90;;;;;;5235123;23;20045;-95
2021/09/16 07:27:06;;;;;;;8.00;3.10;;;16.70;99.90;;;;;;5256034;22;20972;31
2021/09/16 07:29:32;;;;;;;7.72;2.40;;;16.70;99.90;;;;;;4980467;28;20062;-91
2021/09/16 07:37:45;;;;;;;14.13;2.50;;;16.80;99.90;;;;;;5439275;23;20317;-96
2021/09/16 07:40:12;;;;;;;8.98;2.28;;;16.90;99.90;;;;;;5013830;23;20043;-90
2021/09/16 07:42:38;;;;;;;9.85;2.65;;;16.90;99.90;;;;;;4954341;29;20063;-92
2021/09/16 07:45:04;;;;;;;11.85;2.15;;;17.00;99.90;;;;;;4954613;29;20082;-95
2021/09/16 07:47:30;;;;;;;14.07;2.70;;;17.00;99.90;;;;;;4964329;28;20039;-94
2021/09/16 07:49:56;;;;;;;10.63;2.47;;;17.00;99.90;;;;;;4932138;29;20163;-94
2021/09/16 07:52:22;;;;;;;9.25;2.22;;;17.00;99.90;;;;;;4938040;29;20552;-94
2021/09/16 07:54:48;;;;;;;7.85;2.70;;;17.00;99.90;;;;;;4928378;29;20095;-96
2021/09/16 07:57:14;;;;;;;6.13;2.08;;;17.00;99.90;;;;;;4939057;29;20095;-91
2021/09/16 07:59:40;;;;;;;13.45;2.80;;;17.00;99.90;;;;;;4945650;28;20087;-95
2021/09/16 08:02:06;;;;;;;18.40;3.65;;;17.00;99.90;;;;;;4935184;29;20130;-95
2021/09/16 08:04:32;;;;;;;9.68;2.42;;;16.90;99.90;;;;;;4934831;29;20621;-95
2021/09/16 08:06:58;;;;;;;11.27;2.97;;;16.90;99.90;;;;;;4920011;29;20130;-94
2021/09/16 08:09:24;;;;;;;13.80;2.85;;;16.90;99.90;;;;;;4934074;29;20051;-95
2021/09/16 08:11:50;;;;;;;19.67;3.85;;;16.90;99.90;;;;;;4910981;29;20051;-92
2021/09/16 08:14:16;;;;;;;11.38;2.88;;;16.80;99.90;;;;;;4926916;29;20047;-90
2021/09/16 08:16:42;;;;;;;16.45;4.03;;;16.80;99.90;;;;;;4933414;29;20048;-93
2021/09/16 08:19:07;;;;;;;17.48;3.30;;;16.90;99.90;;;;;;4918626;29;20501;-93
2021/09/16 08:21:34;;;;;;;9.25;3.00;;;16.90;99.90;;;;;;4916080;29;20130;-93
2021/09/16 08:24:01;;;;;;;16.48;3.35;;;16.90;99.90;;;;;;4928443;29;20047;-93
2021/09/16 08:26:27;;;;;;;9.25;3.03;;;16.90;99.90;;;;;;4934799;29;20054;-93
2021/09/16 08:28:53;;;;;;;10.25;2.53;;;16.90;99.90;;;;;;4918512;29;20090;-94
2021/09/16 08:31:19;;;;;;;15.07;3.00;;;16.90;99.90;;;;;;4932086;29;20043;-92
2021/09/16 08:33:47;;;;;;;12.68;2.80;;;16.90;99.90;;;;;;4933891;29;20146;-89
2021/09/16 08:36:13;;;;;;;7.53;2.78;;;16.90;99.90;;;;;;4929911;29;20098;-87
2021/09/16 08:38:39;;;;;;;11.10;2.22;;;16.90;99.90;;;;;;4929870;29;20052;-87
2021/09/16 08:41:07;;;;;;;8.00;2.30;;;16.90;99.90;;;;;;4930827;29;20059;-88
2021/09/16 08:43:34;;;;;;;13.05;2.15;;;16.80;99.90;;;;;;4919762;29;20094;-89
2021/09/16 08:46:01;;;;;;;5.78;1.90;;;16.80;99.90;;;;;;4930722;29;20559;-92
2021/09/16 08:48:27;;;;;;;8.05;2.20;;;16.90;99.90;;;;;;4933407;29;20495;-86
2021/09/16 08:50:53;;;;;;;13.75;2.53;;;16.90;99.90;;;;;;4931123;29;20051;-88
2021/09/16 08:53:25;;;;;;;7.07;2.33;;;16.90;99.90;;;;;;4931792;29;20041;-90
2021/09/16 08:55:52;;;;;;;9.10;2.10;;;16.90;99.90;;;;;;4922716;29;20056;-88
2021/09/16 08:58:20;;;;;;;11.23;2.17;;;16.90;99.90;;;;;;4914391;29;20059;-89
2021/09/16 09:00:46;;;;;;;12.15;3.30;;;16.90;99.90;;;;;;4927317;29;20092;-89
2021/09/16 09:03:12;;;;;;;21.30;4.07;;;16.90;99.90;;;;;;4917436;29;20047;-87
2021/09/16 09:05:41;;;;;;;13.60;3.38;;;17.00;99.90;;;;;;4916897;29;20132;-87
2021/09/16 09:08:07;;;;;;;13.73;2.55;;;17.10;99.90;;;;;;4937633;29;20404;-89
2021/09/16 09:10:41;;;;;;;14.65;3.05;;;17.20;99.90;;;;;;4927453;29;20058;-88
2021/09/16 09:13:22;;;;;;;12.52;2.70;;;17.30;99.90;;;;;;4943921;28;20036;-86
2021/09/16 09:16:07;;;;;;;10.35;2.80;;;17.40;99.90;;;;;;4928737;29;20052;-88
2021/09/16 09:18:48;;;;;;;16.40;3.40;;;17.40;99.90;;;;;;4925287;29;20266;-87
2021/09/16 09:21:16;;;;;;;11.75;3.13;;;17.40;99.90;;;;;;4927127;29;20127;-86
2021/09/16 09:23:54;;;;;;;18.50;3.58;;;17.40;99.90;;;;;;4928511;29;20044;-87
2021/09/16 09:26:34;;;;;;;14.85;3.05;;;17.40;99.90;;;;;;4932542;29;20372;-87
2021/09/16 09:29:09;;;;;;;12.77;3.63;;;17.40;99.90;;;;;;4932574;29;20617;-87
2021/09/16 09:31:42;;;;;;;14.25;4.13;;;17.40;99.90;;;;;;4934118;29;20039;-86
2021/09/16 09:34:29;;;;;;;23.67;4.55;;;17.40;99.90;;;;;;4919511;29;20488;-84
2021/09/16 09:37:16;;;;;;;17.35;5.70;;;16.80;99.90;;;;;;4926491;29;20040;-85
2021/09/16 09:39:47;;;;;;;15.00;3.20;;;15.90;99.90;;;;;;4935524;28;20058;-84
2021/09/16 09:42:22;;;;;;;17.67;7.03;;;15.70;99.90;;;;;;4952722;28;20203;-86
2021/09/16 09:44:53;;;;;;;19.48;9.63;;;15.60;99.90;;;;;;4940940;28;20051;-84
2021/09/16 09:47:35;;;;;;;11.70;5.25;;;15.60;99.90;;;;;;4952685;28;20047;-86
2021/09/16 09:50:03;;;;;;;7.95;2.58;;;15.80;99.90;;;;;;4941934;28;20054;-85
2021/09/16 09:52:29;;;;;;;9.65;2.47;;;15.90;99.90;;;;;;4930661;29;20056;-86
2021/09/16 09:54:55;;;;;;;6.80;2.30;;;15.90;99.90;;;;;;4924285;28;20047;-83
2021/09/16 09:57:21;;;;;;;11.73;2.65;;;16.00;99.90;;;;;;4925497;28;20436;-85
2021/09/16 09:59:59;;;;;;;14.23;3.58;;;16.10;99.90;;;;;;4930262;29;20131;-84
2021/09/16 10:02:40;;;;;;;7.57;2.15;;;16.10;99.90;;;;;;4934168;28;20082;-86
2021/09/16 10:05:37;;;;;;;11.18;2.50;;;16.20;99.90;;;;;;4955930;28;20047;-86
2021/09/16 10:08:09;;;;;;;6.05;2.00;;;16.30;99.90;;;;;;4940462;28;20066;-86
2021/09/16 10:10:42;;;;;;;7.18;2.15;;;16.40;99.90;;;;;;4930153;29;20051;-86
2021/09/16 10:13:09;;;;;;;8.85;1.90;;;16.40;99.90;;;;;;4923595;29;20047;-86
2021/09/16 10:15:35;;;;;;;8.05;2.95;;;16.40;99.90;;;;;;4931476;29;20492;-86
2021/09/16 10:18:01;;;;;;;12.40;1.70;;;16.50;99.90;;;;;;4936449;29;20055;-84
2021/09/16 10:20:28;;;;;;;4.00;1.60;;;16.50;99.90;;;;;;4929806;29;20155;-87
2021/09/16 10:22:57;;;;;;;2.78;1.48;;;16.40;99.90;;;;;;4916405;29;20408;-85
2021/09/16 10:25:26;;;;;;;5.15;2.47;;;16.40;99.90;;;;;;4932792;29;20443;-86
2021/09/16 10:28:06;;;;;;;5.38;1.40;;;16.40;99.90;;;;;;4957633;28;20043;-85
2021/09/16 10:30:41;;;;;;;5.40;1.50;;;16.50;99.90;;;;;;4930188;29;20135;-85
2021/09/16 10:33:16;;;;;;;3.45;1.30;;;16.40;99.90;;;;;;4932620;28;20547;-85
2021/09/16 10:36:03;;;;;;;4.97;1.50;;;16.40;99.90;;;;;;4936499;29;20125;-85
2021/09/16 10:38:40;;;;;;;6.80;1.80;;;16.40;99.90;;;;;;4945259;28;20074;-88
2021/09/16 10:41:11;;;;;;;6.95;2.15;;;16.50;99.90;;;;;;4921763;29;20127;-85
2021/09/16 10:43:38;;;;;;;5.07;1.85;;;16.60;99.90;;;;;;4952558;28;20048;-87
2021/09/16 10:46:29;;;;;;;4.07;1.83;;;16.70;99.90;;;;;;4919071;29;20059;-86
2021/09/16 10:48:57;;;;;;;4.53;1.50;;;16.80;99.90;;;;;;4939802;29;20039;-86
2021/09/16 10:51:41;;;;;;;8.88;2.20;;;16.90;99.90;;;;;;4933986;28;20040;-86
2021/09/16 10:57:13;;;;;;;11.57;2.28;;;17.30;99.90;;;;;;4937062;28;20058;-88
2021/09/16 10:59:54;;;;;;;10.73;1.98;;;17.40;99.90;;;;;;4935075;29;20515;-88
2021/09/16 11:02:22;;;;;;;8.60;2.17;;;17.50;99.90;;;;;;4938163;29;20095;-87
2021/09/16 11:04:57;;;;;;;8.65;2.50;;;17.50;99.90;;;;;;4931653;29;20625;-88
2021/09/16 11:07:32;;;;;;;9.45;1.88;;;17.50;99.90;;;;;;4954485;28;20082;-89
2021/09/16 11:10:16;;;;;;;7.22;2.30;;;17.70;99.90;;;;;;4937376;29;20097;-87
2021/09/16 11:12:42;;;;;;;9.25;2.40;;;18.00;99.90;;;;;;4935359;29;20051;-86
2021/09/16 11:15:10;;;;;;;5.53;1.92;;;18.10;99.90;;;;;;4937096;29;20480;-87
2021/09/16 11:17:37;;;;;;;9.68;2.17;;;18.20;99.90;;;;;;4952377;28;20043;-86
2021/09/16 11:20:04;;;;;;;11.68;2.47;;;18.40;99.90;;;;;;4956688;28;20121;-85
2021/09/16 11:22:30;;;;;;;7.80;2.42;;;18.50;99.90;;;;;;4957704;28;20216;-86
2021/09/16 11:24:58;;;;;;;5.22;1.90;;;18.50;99.90;;;;;;4937304;29;20162;-83
2021/09/16 11:27:30;;;;;;;5.00;1.48;;;18.40;99.90;;;;;;4948387;28;20082;-83
2021/09/16 11:29:57;;;;;;;6.22;1.58;;;18.50;99.90;;;;;;4951703;28;20079;-84
2021/09/16 11:32:40;;;;;;;4.68;1.65;;;18.30;99.90;;;;;;4952443;28;20046;-84
2021/09/16 11:35:10;;;;;;;6.45;1.95;;;18.30;99.90;;;;;;4937913;29;20403;-85
2021/09/16 11:37:44;;;;;;;6.03;1.65;;;18.20;99.90;;;;;;4951099;28;20559;-84
2021/09/16 11:40:11;;;;;;;5.57;1.45;;;18.10;99.90;;;;;;4915333;29;20114;-85
2021/09/16 11:42:40;;;;;;;5.60;1.38;;;18.10;99.90;;;;;;4931574;29;20056;-85
2021/09/16 11:45:16;;;;;;;6.53;1.60;;;18.00;99.90;;;;;;4937164;29;20145;-86
2021/09/16 11:47:49;;;;;;;8.40;1.63;;;18.00;99.90;;;;;;4932790;29;20047;-86
2021/09/16 11:50:34;;;;;;;9.55;1.83;;;18.10;99.90;;;;;;4936992;29;20046;-88
2021/09/16 11:53:07;;;;;;;8.65;1.60;;;18.10;99.90;;;;;;4930248;29;20075;-85
2021/09/16 11:55:40;;;;;;;7.78;1.70;;;18.10;99.90;;;;;;4929147;29;20050;-88
2021/09/16 11:58:07;;;;;;;7.50;2.00;;;18.10;99.90;;;;;;4948871;28;20048;-86
2021/09/16 12:00:59;;;;;;;15.07;2.38;;;18.10;99.90;;;;;;4945890;28;20047;-89
2021/09/16 12:03:26;;;;;;;12.52;2.15;;;18.10;99.90;;;;;;4934554;29;20122;-84
2021/09/16 12:05:57;;;;;;;7.80;1.90;;;18.30;99.90;;;;;;4955414;28;20400;-85
2021/09/16 12:08:34;;;;;;;10.38;2.33;;;18.40;99.90;;;;;;4958158;28;20051;-84
2021/09/16 12:11:21;;;;;;;11.98;2.17;;;18.40;99.90;;;;;;4930706;29;20488;-85
2021/09/16 12:13:47;;;;;;;11.15;2.00;;;18.20;99.90;;;;;;4938651;29;20516;-85
2021/09/16 12:16:22;;;;;;;7.55;2.20;;;17.70;99.90;;;;;;4942491;29;20061;-84
2021/09/16 12:18:59;;;;;;;14.52;1.77;;;17.50;99.90;;;;;;4941809;29;20071;-84
2021/09/16 12:21:27;;;;;;;7.10;2.40;;;17.50;99.90;;;;;;4932307;29;20047;-86
2021/09/16 12:23:55;;;;;;;9.70;1.67;;;17.40;99.90;;;;;;4935772;29;20064;-86
2021/09/16 12:26:26;;;;;;;6.63;2.35;;;17.20;99.90;;;;;;4941525;29;20050;-85
2021/09/16 12:28:52;;;;;;;16.45;3.08;;;17.10;99.90;;;;;;4945091;28;20043;-86
2021/09/16 12:31:41;;;;;;;18.25;3.53;;;17.00;99.90;;;;;;4931001;29;20074;-88
2021/09/16 12:34:18;;;;;;;5.60;2.13;;;17.00;99.90;;;;;;4933959;29;20531;-85
2021/09/16 12:37:04;;;;;;;7.28;1.90;;;17.00;99.90;;;;;;4925550;29;20063;-85
2021/09/16 12:39:58;;;;;;;13.38;2.60;;;17.40;99.90;;;;;;4930903;28;20055;-86
2021/09/16 12:42:41;;;;;;;12.73;2.38;;;17.70;99.90;;;;;;4945772;28;20175;-85
2021/09/16 12:45:12;;;;;;;11.20;2.15;;;18.20;99.90;;;;;;4936392;29;20047;-86
2021/09/16 12:47:50;;;;;;;12.35;2.10;;;18.50;99.90;;;;;;4937795;29;20049;-88
2021/09/16 12:50:17;;;;;;;13.60;2.45;;;18.60;99.90;;;;;;4940996;29;20039;-87
2021/09/16 12:52:43;;;;;;;5.18;1.42;;;18.70;99.90;;;;;;4930307;29;20047;-84
2021/09/16 12:55:12;;;;;;;9.88;2.22;;;18.70;99.90;;;;;;4934441;29;20134;-85
2021/09/16 12:57:44;;;;;;;8.15;2.40;;;18.60;99.90;;;;;;4942777;28;20515;-88
2021/09/16 13:00:24;;;;;;;6.80;2.42;;;18.50;99.90;;;;;;4912728;28;20474;-87